createdAt,value
2023-04-03T00:02:17.696Z,14984.75
2023-04-03T00:07:23.487Z,14947.94
2023-04-03T00:12:31.603Z,14711.62
2023-04-03T00:17:36.588Z,14770.54
2023-04-03T00:22:39.994Z,14735.11
2023-04-03T00:27:43.493Z,14757.74
2023-04-03T00:32:51.307Z,14776.25
2023-04-03T00:37:56.171Z,14787.82
2023-04-03T00:43:01.723Z,14726.76
2023-04-03T00:48:08.921Z,14765.84
2023-04-03T00:53:15.643Z,14772.43
2023-04-03T00:58:21.949Z,14794.59
2023-04-03T01:03:26.744Z,14829.85
2023-04-03T01:08:35.477Z,14823.90
2023-04-03T01:13:38.955Z,14812.45
2023-04-03T01:18:46.601Z,14834.88
2023-04-03T01:23:57.158Z,14858.20
2023-04-03T01:29:01.656Z,14862.84
2023-04-03T01:34:06.694Z,14863.65
2023-04-03T01:39:13.337Z,14866.85
2023-04-03T01:44:19.384Z,14847.80
2023-04-03T01:49:24.277Z,14878.48
2023-04-03T01:54:28.063Z,14884.77
2023-04-03T01:59:31.621Z,14889.10
2023-04-03T02:04:36.540Z,14919.53
2023-04-03T02:09:40.001Z,14912.14
2023-04-03T02:14:43.440Z,14880.56
2023-04-03T02:19:53.639Z,14911.06
2023-04-03T02:24:57.486Z,14887.71
2023-04-03T02:30:00.872Z,14874.47
2023-04-03T02:35:06.261Z,14949.46
2023-04-03T02:40:12.520Z,14958.52
2023-04-03T02:45:16.285Z,14984.92
2023-04-03T02:50:21.132Z,14991.52
2023-04-03T02:55:24.669Z,14993.27
2023-04-03T03:00:31.578Z,14955.08
2023-04-03T03:05:37.063Z,14957.88
2023-04-03T03:10:40.461Z,14969.90
2023-04-03T03:15:47.554Z,14978.52
2023-04-03T03:20:54.897Z,14992.32
2023-04-03T03:25:59.041Z,14995.50
2023-04-03T03:31:05.906Z,14963.10
2023-04-03T03:36:12.903Z,14973.98
2023-04-03T03:41:16.316Z,14982.65
2023-04-03T03:46:21.591Z,14993.44
2023-04-03T03:51:26.386Z,14982.64
2023-04-03T03:56:29.974Z,14996.60
2023-04-03T04:01:36.517Z,14962.52
2023-04-03T04:06:43.519Z,14973.23
2023-04-03T04:11:50.421Z,14994.23
2023-04-03T04:16:56.898Z,14969.57
2023-04-03T04:22:04.489Z,14972.55
2023-04-03T04:27:09.524Z,15009.51
2023-04-03T04:32:13.347Z,15008.05
2023-04-03T04:37:19.273Z,15008.08
2023-04-03T04:42:23.818Z,15015.25
2023-04-03T04:47:30.771Z,15028.34
2023-04-03T04:52:38.199Z,15036.79
2023-04-03T04:57:42.445Z,15051.92
2023-04-03T05:02:46.083Z,15062.89
2023-04-03T05:07:51.483Z,15054.63
2023-04-03T05:12:55.505Z,15016.47
2023-04-03T05:17:59.493Z,15020.36
2023-04-03T05:23:04.662Z,15008.59
2023-04-03T05:28:11.232Z,14973.80
2023-04-03T05:33:17.494Z,14969.59
2023-04-03T05:38:27.151Z,14974.90
2023-04-03T05:43:32.060Z,14965.93
2023-04-03T05:48:38.066Z,14977.92
2023-04-03T05:53:43.429Z,14989.15
2023-04-03T05:58:47.278Z,14973.58
2023-04-03T06:03:51.331Z,14945.32
2023-04-03T06:08:56.799Z,14964.29
2023-04-03T06:14:00.165Z,14977.10
2023-04-03T06:19:03.795Z,14975.93
2023-04-03T06:24:09.105Z,14973.69
2023-04-03T06:29:14.736Z,14996.21
2023-04-03T06:34:19.063Z,15021.18
2023-04-03T06:39:24.580Z,15027.26
2023-04-03T06:44:28.158Z,15025.03
2023-04-03T06:49:33.996Z,15019.81
2023-04-03T06:54:43.403Z,15006.05
2023-04-03T06:59:49.291Z,14994.37
2023-04-03T07:04:54.925Z,14974.14
2023-04-03T07:10:02.412Z,14960.89
2023-04-03T07:15:06.270Z,14940.71
2023-04-03T07:20:12.032Z,14963.25
2023-04-03T07:25:19.373Z,14957.94
2023-04-03T07:30:23.174Z,14997.46
2023-04-03T07:35:28.844Z,15000.70
2023-04-03T07:40:33.676Z,15015.68
2023-04-03T07:45:38.005Z,15028.74
2023-04-03T07:50:43.997Z,15027.64
2023-04-03T07:55:52.613Z,14997.64
2023-04-03T08:00:56.006Z,15000.92
2023-04-03T08:06:04.486Z,15020.45
2023-04-03T08:11:09.864Z,15010.20
2023-04-03T08:16:18.756Z,15003.45
2023-04-03T08:21:24.611Z,15006.11
2023-04-03T08:26:34.077Z,15055.44
2023-04-03T08:31:40.625Z,15044.15
2023-04-03T08:36:44.075Z,15060.45
2023-04-03T08:41:49.065Z,15009.08
2023-04-03T08:47:02.525Z,15009.73
2023-04-03T08:52:13.791Z,15023.37
2023-04-03T08:57:19.726Z,15005.82
2023-04-03T09:02:31.587Z,14979.73
2023-04-03T09:07:44.934Z,14927.78
2023-04-03T09:12:55.790Z,14933.37
2023-04-03T09:18:03.707Z,14968.84
2023-04-03T09:23:17.261Z,15002.04
2023-04-03T09:28:24.244Z,15000.40
2023-04-03T09:33:29.468Z,15022.14
2023-04-03T09:38:35.861Z,15041.76
2023-04-03T09:43:53.576Z,15055.78
2023-04-03T09:49:08.070Z,15012.47
2023-04-03T09:54:42.847Z,14990.00
2023-04-03T09:59:49.931Z,15035.75
2023-04-03T10:05:08.452Z,15002.36
2023-04-03T10:10:21.180Z,15001.30
2023-04-03T10:15:32.221Z,15006.18
2023-04-03T10:20:39.694Z,15017.79
2023-04-03T10:25:47.630Z,15068.64
2023-04-03T10:30:59.028Z,15085.30
2023-04-03T10:36:10.461Z,15074.02
2023-04-03T10:41:23.883Z,15122.23
2023-04-03T10:46:32.891Z,15087.80
2023-04-03T10:51:43.729Z,15045.02
2023-04-03T10:56:58.000Z,15026.18
2023-04-03T11:02:09.826Z,15016.05
2023-04-03T11:07:17.883Z,15005.21
2023-04-03T11:12:25.645Z,15014.63
2023-04-03T11:17:36.372Z,15023.31
2023-04-03T11:22:44.454Z,15058.59
2023-04-03T11:27:51.915Z,15066.97
2023-04-03T11:33:16.449Z,15111.37
2023-04-03T11:38:25.620Z,15107.50
2023-04-03T11:43:31.693Z,15131.37
2023-04-03T11:48:44.878Z,15134.09
2023-04-03T11:53:51.989Z,15125.90
2023-04-03T11:59:14.555Z,15157.58
2023-04-03T12:04:20.294Z,15111.46
2023-04-03T12:09:27.145Z,15121.67
2023-04-03T12:14:30.991Z,15151.14
2023-04-03T12:19:44.597Z,15167.62
2023-04-03T12:24:50.731Z,15170.24
2023-04-03T12:29:58.258Z,15266.97
2023-04-03T12:35:12.451Z,15326.15
2023-04-03T12:40:26.851Z,15354.23
2023-04-03T12:45:43.154Z,15337.94
2023-04-03T12:50:51.562Z,15338.86
2023-04-03T12:55:58.025Z,15338.29
2023-04-03T13:01:03.298Z,15217.09
2023-04-03T13:06:06.749Z,15189.51
2023-04-03T13:11:13.711Z,15197.09
2023-04-03T13:16:19.107Z,15201.02
2023-04-03T13:21:25.686Z,15195.48
2023-04-03T13:26:33.896Z,15196.63
2023-04-03T13:31:41.550Z,15149.93
2023-04-03T13:36:47.395Z,15147.77
2023-04-03T13:41:55.534Z,15150.35
2023-04-03T13:47:00.464Z,15189.39
2023-04-03T13:52:24.081Z,15190.62
2023-04-03T13:57:29.294Z,15194.70
2023-04-03T14:02:34.679Z,15171.63
2023-04-03T14:07:38.984Z,15189.74
2023-04-03T14:12:43.762Z,15194.00
2023-04-03T14:17:47.148Z,15183.53
2023-04-03T14:22:54.745Z,15234.69
2023-04-03T14:28:01.027Z,15227.70
2023-04-03T14:33:08.170Z,15246.92
2023-04-03T14:38:22.751Z,15260.32
2023-04-03T14:43:27.627Z,15261.99
2023-04-03T14:48:32.218Z,15300.01
2023-04-03T14:53:39.117Z,15292.45
2023-04-03T14:58:44.073Z,15295.80
2023-04-03T15:03:47.557Z,15935.44
2023-04-03T15:08:51.207Z,15748.40
2023-04-03T15:13:55.957Z,15663.86
2023-04-03T15:18:59.419Z,15518.90
2023-04-03T15:24:02.804Z,15632.63
2023-04-03T15:29:10.004Z,15822.28
2023-04-03T15:34:15.624Z,15742.79
2023-04-03T15:39:19.076Z,15805.53
2023-04-03T15:44:24.052Z,15945.74
2023-04-03T15:49:27.586Z,16056.51
2023-04-03T15:54:33.461Z,15979.78
2023-04-03T15:59:40.467Z,15921.76
2023-04-03T16:04:47.028Z,15835.44
2023-04-03T16:09:50.464Z,15700.44
2023-04-03T16:14:59.965Z,15700.55
2023-04-03T16:20:04.539Z,15713.69
2023-04-03T16:25:11.232Z,15648.25
2023-04-03T16:30:15.962Z,15675.89
2023-04-03T16:35:19.494Z,15718.16
2023-04-03T16:40:25.863Z,15631.96
2023-04-03T16:45:33.073Z,15987.89
2023-04-03T16:50:38.760Z,15808.77
2023-04-03T16:55:42.335Z,15751.28
2023-04-03T17:00:48.386Z,15658.58
2023-04-03T17:05:54.135Z,15720.02
2023-04-03T17:10:57.656Z,15568.30
2023-04-03T17:16:07.457Z,15822.36
2023-04-03T17:21:10.972Z,15969.67
2023-04-03T17:26:14.643Z,15988.25
2023-04-03T17:31:19.491Z,16167.23
2023-04-03T17:36:22.984Z,16153.99
2023-04-03T17:41:27.182Z,15760.84
2023-04-03T17:46:33.804Z,15514.55
2023-04-03T17:51:38.221Z,15443.16
2023-04-03T17:56:47.670Z,15495.61
2023-04-03T18:01:52.625Z,15515.14
2023-04-03T18:06:56.831Z,15513.79
2023-04-03T18:12:03.569Z,15577.33
2023-04-03T18:17:08.927Z,15587.29
2023-04-03T18:22:16.951Z,15524.66
2023-04-03T18:27:21.961Z,15534.20
2023-04-03T18:32:29.378Z,15552.41
2023-04-03T18:37:35.938Z,15570.97
2023-04-03T18:42:42.871Z,15562.28
2023-04-03T18:47:47.684Z,15906.09
2023-04-03T18:52:54.109Z,16312.14
2023-04-03T18:57:57.515Z,16204.29
2023-04-03T19:03:07.236Z,15884.86
2023-04-03T19:08:13.134Z,15583.59
2023-04-03T19:13:16.679Z,15863.69
2023-04-03T19:18:24.493Z,15478.37
2023-04-03T19:23:28.077Z,15440.81
2023-04-03T19:28:31.942Z,15484.66
2023-04-03T19:33:41.724Z,15455.91
2023-04-03T19:38:47.586Z,15507.53
2023-04-03T19:43:56.844Z,15501.27
2023-04-03T19:49:04.470Z,15502.44
2023-04-03T19:54:07.948Z,15475.47
2023-04-03T19:59:11.540Z,15596.04
2023-04-03T20:04:16.558Z,15936.44
2023-04-03T20:09:21.894Z,15998.87
2023-04-03T20:14:25.399Z,16034.23
2023-04-03T20:19:33.344Z,15986.85
2023-04-03T20:24:36.836Z,15483.23
2023-04-03T20:29:40.330Z,15532.46
2023-04-03T20:34:54.035Z,15530.00
2023-04-03T20:40:05.204Z,15657.91
2023-04-03T20:45:09.009Z,16149.83
2023-04-03T20:50:13.996Z,16144.70
2023-04-03T20:55:19.822Z,16077.92
2023-04-03T21:00:28.834Z,15535.45
2023-04-03T21:05:34.768Z,15526.83
2023-04-03T21:10:57.014Z,15768.90
2023-04-03T21:16:00.750Z,15975.21
2023-04-03T21:21:05.963Z,16120.68
2023-04-03T21:26:10.026Z,15778.43
2023-04-03T21:31:16.067Z,15812.34
2023-04-03T21:36:23.427Z,16262.87
2023-04-03T21:41:26.877Z,16470.82
2023-04-03T21:46:30.654Z,16503.17
2023-04-03T21:51:38.898Z,16611.23
2023-04-03T21:56:42.336Z,16608.56
2023-04-03T22:01:45.954Z,16615.47
2023-04-03T22:06:50.949Z,16423.65
2023-04-03T22:11:55.126Z,16584.49
2023-04-03T22:16:58.701Z,16611.61
2023-04-03T22:22:03.651Z,16463.15
2023-04-03T22:27:09.242Z,16656.36
2023-04-03T22:32:12.679Z,16760.78
2023-04-03T22:37:18.577Z,16767.25
2023-04-03T22:42:21.940Z,16423.07
2023-04-03T22:47:25.280Z,16498.86
2023-04-03T22:52:29.994Z,16519.52
2023-04-03T22:57:35.637Z,16553.75
2023-04-03T23:02:39.046Z,16465.21
2023-04-03T23:07:46.030Z,15724.88
2023-04-03T23:12:51.732Z,15870.92
2023-04-03T23:17:55.108Z,15704.26
2023-04-03T23:23:00.290Z,15831.88
2023-04-03T23:28:03.930Z,16348.11
2023-04-03T23:33:08.186Z,16620.67
2023-04-03T23:38:12.928Z,16567.81
2023-04-03T23:43:19.309Z,16585.27
2023-04-03T23:48:25.110Z,16599.11
2023-04-03T23:53:29.843Z,16625.13
2023-04-03T23:58:33.218Z,16592.18
